sensor_id;sensor_type;location;lat;lon;timestamp;P1;durP1;ratioP1;P2;durP2;ratioP2
20739;SDS011;10530;49.968;19.844;2023-06-22T00:03:32;8.82;;;4.10;;
20739;SDS011;10530;49.968;19.844;2023-06-22T00:08:35;11.70;;;4.75;;
20739;SDS011;10530;49.968;19.844;2023-06-22T00:13:38;9.93;;;4.45;;
20739;SDS011;10530;49.968;19.844;2023-06-22T00:18:41;9.87;;;4.57;;
20739;SDS011;10530;49.968;19.844;2023-06-22T00:23:49;10.95;;;5.00;;
20739;SDS011;10530;49.968;19.844;2023-06-22T00:28:52;9.93;;;4.53;;
20739;SDS011;10530;49.968;19.844;2023-06-22T00:33:55;11.55;;;4.65;;
20739;SDS011;10530;49.968;19.844;2023-06-22T00:38:58;11.60;;;4.93;;
20739;SDS011;10530;49.968;19.844;2023-06-22T00:44:02;10.97;;;4.83;;
20739;SDS011;10530;49.968;19.844;2023-06-22T00:49:06;11.07;;;5.35;;
20739;SDS011;10530;49.968;19.844;2023-06-22T00:54:09;14.15;;;6.35;;
20739;SDS011;10530;49.968;19.844;2023-06-22T00:59:13;13.40;;;5.75;;
20739;SDS011;10530;49.968;19.844;2023-06-22T01:04:19;11.68;;;5.22;;
20739;SDS011;10530;49.968;19.844;2023-06-22T01:09:31;12.43;;;5.40;;
20739;SDS011;10530;49.968;19.844;2023-06-22T01:14:44;11.45;;;4.68;;
20739;SDS011;10530;49.968;19.844;2023-06-22T01:19:54;11.88;;;5.63;;
20739;SDS011;10530;49.968;19.844;2023-06-22T01:25:09;10.43;;;5.20;;
20739;SDS011;10530;49.968;19.844;2023-06-22T01:30:16;13.35;;;5.25;;
20739;SDS011;10530;49.968;19.844;2023-06-22T01:35:20;10.50;;;4.97;;
20739;SDS011;10530;49.968;19.844;2023-06-22T01:40:24;12.50;;;5.45;;
20739;SDS011;10530;49.968;19.844;2023-06-22T01:45:28;12.18;;;4.97;;
20739;SDS011;10530;49.968;19.844;2023-06-22T01:50:32;13.65;;;5.18;;
20739;SDS011;10530;49.968;19.844;2023-06-22T01:55:35;9.80;;;4.32;;
20739;SDS011;10530;49.968;19.844;2023-06-22T02:00:38;11.33;;;5.00;;
20739;SDS011;10530;49.968;19.844;2023-06-22T02:05:45;13.25;;;5.30;;
20739;SDS011;10530;49.968;19.844;2023-06-22T02:10:51;10.95;;;4.80;;
20739;SDS011;10530;49.968;19.844;2023-06-22T02:15:56;14.18;;;5.18;;
20739;SDS011;10530;49.968;19.844;2023-06-22T02:20:59;12.95;;;4.95;;
20739;SDS011;10530;49.968;19.844;2023-06-22T02:26:02;12.07;;;5.10;;
20739;SDS011;10530;49.968;19.844;2023-06-22T02:31:06;9.50;;;4.75;;
20739;SDS011;10530;49.968;19.844;2023-06-22T02:36:09;11.05;;;4.88;;
20739;SDS011;10530;49.968;19.844;2023-06-22T02:41:15;10.98;;;4.88;;
20739;SDS011;10530;49.968;19.844;2023-06-22T02:46:20;9.45;;;4.78;;
20739;SDS011;10530;49.968;19.844;2023-06-22T02:51:24;9.10;;;4.73;;
20739;SDS011;10530;49.968;19.844;2023-06-22T02:56:28;12.07;;;5.00;;
20739;SDS011;10530;49.968;19.844;2023-06-22T03:01:35;14.73;;;4.93;;
20739;SDS011;10530;49.968;19.844;2023-06-22T03:06:56;10.00;;;4.15;;
20739;SDS011;10530;49.968;19.844;2023-06-22T03:12:05;11.25;;;4.47;;
20739;SDS011;10530;49.968;19.844;2023-06-22T03:17:24;11.30;;;4.67;;
20739;SDS011;10530;49.968;19.844;2023-06-22T03:22:27;10.95;;;4.70;;
20739;SDS011;10530;49.968;19.844;2023-06-22T03:27:30;13.13;;;4.88;;
20739;SDS011;10530;49.968;19.844;2023-06-22T03:32:33;9.40;;;4.22;;
20739;SDS011;10530;49.968;19.844;2023-06-22T03:37:36;10.95;;;4.60;;
20739;SDS011;10530;49.968;19.844;2023-06-22T03:42:39;9.93;;;4.40;;
20739;SDS011;10530;49.968;19.844;2023-06-22T03:47:43;10.55;;;4.28;;
20739;SDS011;10530;49.968;19.844;2023-06-22T03:52:46;11.35;;;4.18;;
20739;SDS011;10530;49.968;19.844;2023-06-22T03:57:49;10.35;;;4.28;;
20739;SDS011;10530;49.968;19.844;2023-06-22T04:02:52;9.95;;;3.63;;
20739;SDS011;10530;49.968;19.844;2023-06-22T04:07:55;9.63;;;3.93;;
20739;SDS011;10530;49.968;19.844;2023-06-22T04:12:58;11.25;;;4.50;;
20739;SDS011;10530;49.968;19.844;2023-06-22T04:18:02;9.65;;;4.32;;
20739;SDS011;10530;49.968;19.844;2023-06-22T04:23:05;11.45;;;5.13;;
20739;SDS011;10530;49.968;19.844;2023-06-22T04:28:08;12.32;;;5.13;;
20739;SDS011;10530;49.968;19.844;2023-06-22T04:33:15;12.53;;;5.27;;
20739;SDS011;10530;49.968;19.844;2023-06-22T04:38:18;16.58;;;6.20;;
20739;SDS011;10530;49.968;19.844;2023-06-22T04:43:23;11.77;;;5.28;;
20739;SDS011;10530;49.968;19.844;2023-06-22T04:48:26;12.50;;;5.18;;
20739;SDS011;10530;49.968;19.844;2023-06-22T04:53:35;11.98;;;4.68;;
20739;SDS011;10530;49.968;19.844;2023-06-22T04:58:38;11.50;;;4.70;;
20739;SDS011;10530;49.968;19.844;2023-06-22T05:03:40;12.35;;;4.55;;
20739;SDS011;10530;49.968;19.844;2023-06-22T05:08:44;9.93;;;4.65;;
20739;SDS011;10530;49.968;19.844;2023-06-22T05:13:47;12.27;;;4.93;;
20739;SDS011;10530;49.968;19.844;2023-06-22T05:18:53;15.15;;;5.68;;
20739;SDS011;10530;49.968;19.844;2023-06-22T05:23:57;14.17;;;4.87;;
20739;SDS011;10530;49.968;19.844;2023-06-22T05:29:02;11.73;;;4.85;;
20739;SDS011;10530;49.968;19.844;2023-06-22T05:34:05;11.93;;;5.35;;
20739;SDS011;10530;49.968;19.844;2023-06-22T05:39:12;9.88;;;4.28;;
20739;SDS011;10530;49.968;19.844;2023-06-22T05:44:16;10.57;;;4.63;;
20739;SDS011;10530;49.968;19.844;2023-06-22T05:49:19;11.40;;;5.10;;
20739;SDS011;10530;49.968;19.844;2023-06-22T05:54:24;11.38;;;5.15;;
20739;SDS011;10530;49.968;19.844;2023-06-22T05:59:27;9.45;;;4.95;;
20739;SDS011;10530;49.968;19.844;2023-06-22T06:04:30;11.43;;;4.93;;
20739;SDS011;10530;49.968;19.844;2023-06-22T06:09:33;10.90;;;5.50;;
20739;SDS011;10530;49.968;19.844;2023-06-22T06:14:36;11.27;;;5.10;;
20739;SDS011;10530;49.968;19.844;2023-06-22T06:19:39;12.38;;;6.28;;
20739;SDS011;10530;49.968;19.844;2023-06-22T06:24:42;14.13;;;6.32;;
20739;SDS011;10530;49.968;19.844;2023-06-22T06:29:46;14.77;;;6.75;;
20739;SDS011;10530;49.968;19.844;2023-06-22T06:34:50;15.52;;;6.50;;
20739;SDS011;10530;49.968;19.844;2023-06-22T06:39:53;15.40;;;7.40;;
20739;SDS011;10530;49.968;19.844;2023-06-22T06:44:56;15.88;;;7.63;;
20739;SDS011;10530;49.968;19.844;2023-06-22T06:49:59;16.92;;;8.30;;
20739;SDS011;10530;49.968;19.844;2023-06-22T06:55:02;15.27;;;7.57;;
20739;SDS011;10530;49.968;19.844;2023-06-22T07:00:11;16.40;;;8.00;;
20739;SDS011;10530;49.968;19.844;2023-06-22T07:05:16;17.30;;;8.00;;
20739;SDS011;10530;49.968;19.844;2023-06-22T07:10:19;15.90;;;7.82;;
20739;SDS011;10530;49.968;19.844;2023-06-22T07:15:21;15.15;;;7.72;;
20739;SDS011;10530;49.968;19.844;2023-06-22T07:20:25;20.35;;;8.85;;
20739;SDS011;10530;49.968;19.844;2023-06-22T07:25:28;19.05;;;9.00;;
20739;SDS011;10530;49.968;19.844;2023-06-22T07:30:32;18.13;;;8.27;;
20739;SDS011;10530;49.968;19.844;2023-06-22T07:35:36;14.15;;;8.18;;
20739;SDS011;10530;49.968;19.844;2023-06-22T07:40:39;21.63;;;9.48;;
20739;SDS011;10530;49.968;19.844;2023-06-22T07:45:48;20.13;;;10.13;;
20739;SDS011;10530;49.968;19.844;2023-06-22T07:50:54;20.98;;;11.13;;
20739;SDS011;10530;49.968;19.844;2023-06-22T07:55:57;18.23;;;9.53;;
20739;SDS011;10530;49.968;19.844;2023-06-22T08:01:01;21.05;;;10.70;;
20739;SDS011;10530;49.968;19.844;2023-06-22T08:06:05;19.58;;;10.27;;
20739;SDS011;10530;49.968;19.844;2023-06-22T08:11:11;17.40;;;10.10;;
20739;SDS011;10530;49.968;19.844;2023-06-22T08:16:14;18.23;;;9.98;;
20739;SDS011;10530;49.968;19.844;2023-06-22T08:21:17;17.67;;;9.20;;
20739;SDS011;10530;49.968;19.844;2023-06-22T08:26:20;18.48;;;10.15;;
20739;SDS011;10530;49.968;19.844;2023-06-22T08:31:23;19.58;;;10.18;;
20739;SDS011;10530;49.968;19.844;2023-06-22T08:36:27;17.30;;;9.95;;
20739;SDS011;10530;49.968;19.844;2023-06-22T08:41:35;20.63;;;10.98;;
20739;SDS011;10530;49.968;19.844;2023-06-22T08:46:38;20.93;;;11.00;;
20739;SDS011;10530;49.968;19.844;2023-06-22T08:51:42;18.88;;;11.25;;
20739;SDS011;10530;49.968;19.844;2023-06-22T08:56:48;21.52;;;12.60;;
20739;SDS011;10530;49.968;19.844;2023-06-22T09:01:51;21.08;;;12.65;;
20739;SDS011;10530;49.968;19.844;2023-06-22T09:06:54;24.38;;;13.05;;
20739;SDS011;10530;49.968;19.844;2023-06-22T09:11:57;20.13;;;11.93;;
20739;SDS011;10530;49.968;19.844;2023-06-22T09:17:00;22.25;;;13.65;;
20739;SDS011;10530;49.968;19.844;2023-06-22T09:22:03;22.77;;;14.68;;
20739;SDS011;10530;49.968;19.844;2023-06-22T09:27:08;23.40;;;14.73;;
20739;SDS011;10530;49.968;19.844;2023-06-22T09:32:11;22.98;;;14.07;;
20739;SDS011;10530;49.968;19.844;2023-06-22T09:37:14;22.43;;;13.50;;
20739;SDS011;10530;49.968;19.844;2023-06-22T09:42:17;24.27;;;14.07;;
20739;SDS011;10530;49.968;19.844;2023-06-22T09:47:20;21.13;;;13.10;;
20739;SDS011;10530;49.968;19.844;2023-06-22T09:52:23;19.55;;;11.68;;
20739;SDS011;10530;49.968;19.844;2023-06-22T09:57:35;19.27;;;11.73;;
20739;SDS011;10530;49.968;19.844;2023-06-22T10:02:38;21.27;;;12.23;;
20739;SDS011;10530;49.968;19.844;2023-06-22T10:07:42;19.35;;;11.70;;
20739;SDS011;10530;49.968;19.844;2023-06-22T10:12:47;18.02;;;11.55;;
20739;SDS011;10530;49.968;19.844;2023-06-22T10:17:56;18.38;;;11.80;;
20739;SDS011;10530;49.968;19.844;2023-06-22T10:22:59;17.23;;;11.43;;
20739;SDS011;10530;49.968;19.844;2023-06-22T10:28:02;20.53;;;12.47;;
20739;SDS011;10530;49.968;19.844;2023-06-22T10:33:05;18.75;;;12.48;;
20739;SDS011;10530;49.968;19.844;2023-06-22T10:38:08;17.85;;;12.10;;
20739;SDS011;10530;49.968;19.844;2023-06-22T10:43:11;19.42;;;11.90;;
20739;SDS011;10530;49.968;19.844;2023-06-22T10:48:14;19.40;;;11.77;;
20739;SDS011;10530;49.968;19.844;2023-06-22T10:53:18;17.97;;;12.00;;
20739;SDS011;10530;49.968;19.844;2023-06-22T10:58:21;16.75;;;11.45;;
20739;SDS011;10530;49.968;19.844;2023-06-22T11:03:24;16.02;;;10.75;;
20739;SDS011;10530;49.968;19.844;2023-06-22T11:08:27;16.45;;;10.95;;
20739;SDS011;10530;49.968;19.844;2023-06-22T11:13:30;16.50;;;10.57;;
20739;SDS011;10530;49.968;19.844;2023-06-22T11:18:34;15.13;;;10.27;;
20739;SDS011;10530;49.968;19.844;2023-06-22T11:23:37;16.05;;;10.68;;
20739;SDS011;10530;49.968;19.844;2023-06-22T11:28:40;12.57;;;8.80;;
20739;SDS011;10530;49.968;19.844;2023-06-22T11:33:43;13.45;;;9.10;;
20739;SDS011;10530;49.968;19.844;2023-06-22T11:38:48;13.05;;;8.90;;
20739;SDS011;10530;49.968;19.844;2023-06-22T11:43:51;14.63;;;8.87;;
20739;SDS011;10530;49.968;19.844;2023-06-22T11:48:54;14.43;;;9.55;;
20739;SDS011;10530;49.968;19.844;2023-06-22T11:53:57;15.50;;;9.80;;
20739;SDS011;10530;49.968;19.844;2023-06-22T11:59:01;19.48;;;9.65;;
20739;SDS011;10530;49.968;19.844;2023-06-22T12:04:04;14.93;;;9.38;;
20739;SDS011;10530;49.968;19.844;2023-06-22T12:09:08;13.83;;;8.70;;
20739;SDS011;10530;49.968;19.844;2023-06-22T12:14:11;14.32;;;8.90;;
20739;SDS011;10530;49.968;19.844;2023-06-22T12:19:14;13.43;;;9.15;;
20739;SDS011;10530;49.968;19.844;2023-06-22T12:24:17;11.95;;;8.65;;
20739;SDS011;10530;49.968;19.844;2023-06-22T12:29:20;14.35;;;9.10;;
20739;SDS011;10530;49.968;19.844;2023-06-22T12:34:23;13.37;;;9.20;;
20739;SDS011;10530;49.968;19.844;2023-06-22T12:39:26;13.48;;;9.10;;
20739;SDS011;10530;49.968;19.844;2023-06-22T12:44:29;14.52;;;9.77;;
20739;SDS011;10530;49.968;19.844;2023-06-22T12:49:32;14.52;;;9.38;;
20739;SDS011;10530;49.968;19.844;2023-06-22T12:54:35;15.30;;;9.82;;
20739;SDS011;10530;49.968;19.844;2023-06-22T12:59:55;14.30;;;9.83;;
20739;SDS011;10530;49.968;19.844;2023-06-22T13:04:58;15.38;;;10.23;;
20739;SDS011;10530;49.968;19.844;2023-06-22T13:10:01;16.65;;;10.55;;
20739;SDS011;10530;49.968;19.844;2023-06-22T13:15:05;15.13;;;10.45;;
20739;SDS011;10530;49.968;19.844;2023-06-22T13:20:08;15.55;;;10.15;;
20739;SDS011;10530;49.968;19.844;2023-06-22T13:25:12;17.93;;;10.33;;
20739;SDS011;10530;49.968;19.844;2023-06-22T13:30:15;15.43;;;10.27;;
20739;SDS011;10530;49.968;19.844;2023-06-22T13:35:18;19.20;;;11.30;;
20739;SDS011;10530;49.968;19.844;2023-06-22T13:40:21;14.35;;;10.30;;
20739;SDS011;10530;49.968;19.844;2023-06-22T13:45:24;15.93;;;10.05;;
20739;SDS011;10530;49.968;19.844;2023-06-22T13:50:27;14.13;;;9.87;;
20739;SDS011;10530;49.968;19.844;2023-06-22T13:55:32;14.45;;;9.45;;
20739;SDS011;10530;49.968;19.844;2023-06-22T14:00:35;15.88;;;9.20;;
20739;SDS011;10530;49.968;19.844;2023-06-22T14:05:39;15.75;;;9.70;;
20739;SDS011;10530;49.968;19.844;2023-06-22T14:10:44;15.70;;;9.95;;
20739;SDS011;10530;49.968;19.844;2023-06-22T14:15:47;13.97;;;8.27;;
20739;SDS011;10530;49.968;19.844;2023-06-22T14:20:50;13.45;;;8.70;;
20739;SDS011;10530;49.968;19.844;2023-06-22T14:25:53;13.00;;;8.50;;
20739;SDS011;10530;49.968;19.844;2023-06-22T14:30:56;13.18;;;8.90;;
20739;SDS011;10530;49.968;19.844;2023-06-22T14:35:59;12.25;;;8.05;;
20739;SDS011;10530;49.968;19.844;2023-06-22T14:41:02;12.03;;;7.97;;
20739;SDS011;10530;49.968;19.844;2023-06-22T14:46:08;12.35;;;8.02;;
20739;SDS011;10530;49.968;19.844;2023-06-22T14:51:11;10.43;;;7.05;;
20739;SDS011;10530;49.968;19.844;2023-06-22T14:56:18;10.50;;;6.80;;
20739;SDS011;10530;49.968;19.844;2023-06-22T15:01:21;12.73;;;6.80;;
20739;SDS011;10530;49.968;19.844;2023-06-22T15:06:24;13.37;;;7.30;;
20739;SDS011;10530;49.968;19.844;2023-06-22T15:11:27;13.73;;;6.97;;
20739;SDS011;10530;49.968;19.844;2023-06-22T15:16:30;9.80;;;6.20;;
20739;SDS011;10530;49.968;19.844;2023-06-22T15:21:33;11.18;;;6.38;;
20739;SDS011;10530;49.968;19.844;2023-06-22T15:26:36;12.73;;;6.28;;
20739;SDS011;10530;49.968;19.844;2023-06-22T15:31:39;9.73;;;6.57;;
20739;SDS011;10530;49.968;19.844;2023-06-22T15:36:42;10.52;;;6.80;;
20739;SDS011;10530;49.968;19.844;2023-06-22T15:41:44;10.32;;;6.50;;
20739;SDS011;10530;49.968;19.844;2023-06-22T15:46:48;8.80;;;6.10;;
20739;SDS011;10530;49.968;19.844;2023-06-22T15:51:51;11.25;;;6.55;;
20739;SDS011;10530;49.968;19.844;2023-06-22T15:56:54;11.40;;;6.70;;
20739;SDS011;10530;49.968;19.844;2023-06-22T16:01:57;9.77;;;6.28;;
20739;SDS011;10530;49.968;19.844;2023-06-22T16:07:00;10.55;;;6.18;;
20739;SDS011;10530;49.968;19.844;2023-06-22T16:12:03;11.00;;;6.40;;
20739;SDS011;10530;49.968;19.844;2023-06-22T16:17:07;9.98;;;6.28;;
20739;SDS011;10530;49.968;19.844;2023-06-22T16:22:10;12.97;;;6.47;;
20739;SDS011;10530;49.968;19.844;2023-06-22T16:27:13;9.70;;;5.97;;
20739;SDS011;10530;49.968;19.844;2023-06-22T16:32:16;11.23;;;6.32;;
20739;SDS011;10530;49.968;19.844;2023-06-22T16:37:20;12.80;;;6.30;;
20739;SDS011;10530;49.968;19.844;2023-06-22T16:42:23;10.02;;;5.82;;
20739;SDS011;10530;49.968;19.844;2023-06-22T16:47:26;10.00;;;6.03;;
20739;SDS011;10530;49.968;19.844;2023-06-22T16:52:31;10.55;;;6.40;;
20739;SDS011;10530;49.968;19.844;2023-06-22T16:57:34;9.98;;;5.88;;
20739;SDS011;10530;49.968;19.844;2023-06-22T17:02:47;11.65;;;6.30;;
20739;SDS011;10530;49.968;19.844;2023-06-22T17:07:57;11.18;;;6.25;;
20739;SDS011;10530;49.968;19.844;2023-06-22T17:13:05;11.43;;;6.43;;
20739;SDS011;10530;49.968;19.844;2023-06-22T17:18:09;9.63;;;6.03;;
20739;SDS011;10530;49.968;19.844;2023-06-22T17:23:14;10.05;;;5.82;;
20739;SDS011;10530;49.968;19.844;2023-06-22T17:28:16;12.02;;;6.38;;
20739;SDS011;10530;49.968;19.844;2023-06-22T17:33:25;12.35;;;6.20;;
20739;SDS011;10530;49.968;19.844;2023-06-22T17:38:28;11.60;;;6.20;;
20739;SDS011;10530;49.968;19.844;2023-06-22T17:43:31;10.15;;;5.85;;
20739;SDS011;10530;49.968;19.844;2023-06-22T17:48:34;11.05;;;6.28;;
20739;SDS011;10530;49.968;19.844;2023-06-22T17:53:37;11.68;;;6.30;;
20739;SDS011;10530;49.968;19.844;2023-06-22T17:58:46;10.45;;;6.10;;
20739;SDS011;10530;49.968;19.844;2023-06-22T18:03:52;11.50;;;6.10;;
20739;SDS011;10530;49.968;19.844;2023-06-22T18:08:57;11.13;;;6.57;;
20739;SDS011;10530;49.968;19.844;2023-06-22T18:14:04;9.40;;;5.95;;
20739;SDS011;10530;49.968;19.844;2023-06-22T18:19:07;10.52;;;6.00;;
20739;SDS011;10530;49.968;19.844;2023-06-22T18:24:11;10.52;;;5.75;;
20739;SDS011;10530;49.968;19.844;2023-06-22T18:29:17;10.17;;;6.00;;
20739;SDS011;10530;49.968;19.844;2023-06-22T18:34:22;11.27;;;6.13;;
20739;SDS011;10530;49.968;19.844;2023-06-22T18:39:25;10.93;;;6.35;;
20739;SDS011;10530;49.968;19.844;2023-06-22T18:44:33;11.25;;;6.03;;
20739;SDS011;10530;49.968;19.844;2023-06-22T18:54:46;12.73;;;6.90;;
20739;SDS011;10530;49.968;19.844;2023-06-22T19:05:06;11.30;;;6.57;;
20739;SDS011;10530;49.968;19.844;2023-06-22T19:15:40;13.60;;;6.88;;
20739;SDS011;10530;49.968;19.844;2023-06-22T19:21:26;13.33;;;6.50;;
20739;SDS011;10530;49.968;19.844;2023-06-22T19:26:14;11.65;;;6.70;;
20739;SDS011;10530;49.968;19.844;2023-06-22T19:31:20;12.77;;;6.32;;
20739;SDS011;10530;49.968;19.844;2023-06-22T19:36:24;14.20;;;7.15;;
20739;SDS011;10530;49.968;19.844;2023-06-22T19:41:28;12.88;;;7.05;;
20739;SDS011;10530;49.968;19.844;2023-06-22T19:46:31;12.83;;;7.27;;
20739;SDS011;10530;49.968;19.844;2023-06-22T19:51:35;13.13;;;6.88;;
20739;SDS011;10530;49.968;19.844;2023-06-22T19:56:38;10.70;;;6.00;;
20739;SDS011;10530;49.968;19.844;2023-06-22T20:01:42;12.02;;;6.03;;
20739;SDS011;10530;49.968;19.844;2023-06-22T20:07:05;11.70;;;6.00;;
20739;SDS011;10530;49.968;19.844;2023-06-22T20:12:31;9.80;;;5.70;;
20739;SDS011;10530;49.968;19.844;2023-06-22T20:17:39;11.48;;;6.15;;
20739;SDS011;10530;49.968;19.844;2023-06-22T20:22:44;10.90;;;5.82;;
20739;SDS011;10530;49.968;19.844;2023-06-22T20:27:48;10.60;;;5.75;;
20739;SDS011;10530;49.968;19.844;2023-06-22T20:32:59;10.80;;;6.13;;
20739;SDS011;10530;49.968;19.844;2023-06-22T20:38:04;10.17;;;5.80;;
20739;SDS011;10530;49.968;19.844;2023-06-22T20:43:07;11.15;;;6.03;;
20739;SDS011;10530;49.968;19.844;2023-06-22T20:48:11;11.13;;;5.82;;
20739;SDS011;10530;49.968;19.844;2023-06-22T20:53:16;9.35;;;5.47;;
20739;SDS011;10530;49.968;19.844;2023-06-22T20:58:20;10.85;;;5.50;;
20739;SDS011;10530;49.968;19.844;2023-06-22T21:03:22;11.17;;;5.90;;
20739;SDS011;10530;49.968;19.844;2023-06-22T21:08:26;10.68;;;5.40;;
20739;SDS011;10530;49.968;19.844;2023-06-22T21:13:29;10.05;;;5.80;;
20739;SDS011;10530;49.968;19.844;2023-06-22T21:18:34;10.38;;;5.72;;
20739;SDS011;10530;49.968;19.844;2023-06-22T21:23:37;11.07;;;6.03;;
20739;SDS011;10530;49.968;19.844;2023-06-22T21:28:40;10.00;;;5.43;;
20739;SDS011;10530;49.968;19.844;2023-06-22T21:33:43;10.43;;;5.85;;
20739;SDS011;10530;49.968;19.844;2023-06-22T21:38:46;10.90;;;5.70;;
20739;SDS011;10530;49.968;19.844;2023-06-22T21:43:49;10.02;;;5.88;;
20739;SDS011;10530;49.968;19.844;2023-06-22T21:48:52;11.20;;;6.10;;
20739;SDS011;10530;49.968;19.844;2023-06-22T21:53:55;11.43;;;6.40;;
20739;SDS011;10530;49.968;19.844;2023-06-22T21:58:58;11.23;;;5.82;;
20739;SDS011;10530;49.968;19.844;2023-06-22T22:04:01;12.73;;;6.32;;
20739;SDS011;10530;49.968;19.844;2023-06-22T22:09:04;13.18;;;5.85;;
20739;SDS011;10530;49.968;19.844;2023-06-22T22:14:07;11.82;;;5.63;;
20739;SDS011;10530;49.968;19.844;2023-06-22T22:19:10;10.40;;;5.97;;
20739;SDS011;10530;49.968;19.844;2023-06-22T22:24:14;11.15;;;6.07;;
20739;SDS011;10530;49.968;19.844;2023-06-22T22:29:17;11.57;;;6.10;;
20739;SDS011;10530;49.968;19.844;2023-06-22T22:34:20;10.98;;;6.03;;
20739;SDS011;10530;49.968;19.844;2023-06-22T22:39:33;11.07;;;5.97;;
20739;SDS011;10530;49.968;19.844;2023-06-22T22:45:32;11.57;;;6.40;;
20739;SDS011;10530;49.968;19.844;2023-06-22T22:50:35;15.30;;;6.90;;
20739;SDS011;10530;49.968;19.844;2023-06-22T22:55:38;12.40;;;6.63;;
20739;SDS011;10530;49.968;19.844;2023-06-22T23:00:41;12.80;;;6.60;;
20739;SDS011;10530;49.968;19.844;2023-06-22T23:05:44;12.90;;;6.47;;
20739;SDS011;10530;49.968;19.844;2023-06-22T23:10:47;12.07;;;6.63;;
20739;SDS011;10530;49.968;19.844;2023-06-22T23:15:50;12.98;;;6.57;;
20739;SDS011;10530;49.968;19.844;2023-06-22T23:20:53;13.50;;;6.82;;
20739;SDS011;10530;49.968;19.844;2023-06-22T23:25:56;13.27;;;7.03;;
20739;SDS011;10530;49.968;19.844;2023-06-22T23:30:59;12.60;;;6.38;;
20739;SDS011;10530;49.968;19.844;2023-06-22T23:36:02;13.30;;;7.10;;
20739;SDS011;10530;49.968;19.844;2023-06-22T23:41:06;14.20;;;7.22;;
20739;SDS011;10530;49.968;19.844;2023-06-22T23:46:11;13.02;;;6.82;;
20739;SDS011;10530;49.968;19.844;2023-06-22T23:51:14;14.10;;;7.20;;
20739;SDS011;10530;49.968;19.844;2023-06-22T23:56:17;17.35;;;7.45;;
